createdAt,value
2022-09-14T00:00:43.806Z,17.62
2022-09-14T00:03:33.950Z,17.59
2022-09-14T00:06:11.657Z,17.60
2022-09-14T00:08:44.634Z,17.59
2022-09-14T00:11:18.932Z,17.60
2022-09-14T00:13:51.788Z,17.65
2022-09-14T00:16:26.308Z,17.64
2022-09-14T00:19:01.123Z,17.63
2022-09-14T00:21:33.577Z,17.73
2022-09-14T00:24:07.412Z,17.75
2022-09-14T00:26:39.639Z,17.68
2022-09-14T00:29:13.258Z,17.65
2022-09-14T00:31:45.596Z,17.55
2022-09-14T00:34:19.079Z,17.65
2022-09-14T00:36:53.206Z,17.58
2022-09-14T00:39:26.106Z,17.59
2022-09-14T00:41:58.452Z,17.54
2022-09-14T00:45:06.948Z,17.51
2022-09-14T00:47:39.103Z,17.50
2022-09-14T00:50:12.532Z,17.51
2022-09-14T00:52:48.672Z,17.52
2022-09-14T00:55:23.615Z,17.50
2022-09-14T00:57:55.485Z,17.45
2022-09-14T01:00:29.630Z,17.53
2022-09-14T01:03:02.430Z,17.49
2022-09-14T01:05:46.440Z,17.43
2022-09-14T01:08:38.810Z,17.39
2022-09-14T01:11:23.119Z,17.37
2022-09-14T01:14:04.535Z,17.40
2022-09-14T01:16:44.131Z,17.35
2022-09-14T01:19:26.192Z,17.35
2022-09-14T01:22:08.664Z,17.30
2022-09-14T01:24:47.830Z,17.20
2022-09-14T01:27:30.017Z,17.35
2022-09-14T01:30:08.078Z,17.38
2022-09-14T01:32:46.514Z,17.31
2022-09-14T01:35:24.298Z,17.44
2022-09-14T01:38:02.074Z,17.47
2022-09-14T01:40:38.160Z,17.42
2022-09-14T01:43:13.852Z,17.42
2022-09-14T01:45:50.998Z,17.29
2022-09-14T01:48:28.324Z,17.23
2022-09-14T01:51:02.522Z,17.14
2022-09-14T01:53:40.447Z,17.07
2022-09-14T01:56:20.224Z,17.06
2022-09-14T01:58:59.136Z,17.12
2022-09-14T02:01:36.541Z,17.07
2022-09-14T02:04:13.109Z,17.09
2022-09-14T02:06:48.808Z,17.14
2022-09-14T02:09:26.632Z,16.95
2022-09-14T02:12:00.943Z,16.87
2022-09-14T02:14:33.732Z,16.89
2022-09-14T02:17:08.274Z,17.00
2022-09-14T02:19:46.027Z,17.12
2022-09-14T02:22:18.381Z,17.04
2022-09-14T02:24:51.336Z,16.96
2022-09-14T02:27:23.684Z,17.14
2022-09-14T02:29:56.376Z,17.15
2022-09-14T02:32:33.315Z,17.07
2022-09-14T02:35:11.600Z,16.91
2022-09-14T02:37:51.356Z,17.02
2022-09-14T02:40:31.470Z,17.01
2022-09-14T02:43:13.724Z,17.02
2022-09-14T02:45:55.161Z,16.99
2022-09-14T02:48:36.037Z,16.90
2022-09-14T02:51:16.489Z,16.93
2022-09-14T02:53:55.102Z,16.98
2022-09-14T02:56:28.492Z,16.94
2022-09-14T02:59:00.816Z,16.85
2022-09-14T03:01:33.043Z,16.71
2022-09-14T03:04:05.591Z,16.61
2022-09-14T03:06:37.851Z,16.67
2022-09-14T03:09:10.069Z,16.77
2022-09-14T03:11:42.104Z,16.89
2022-09-14T03:14:14.371Z,16.86
2022-09-14T03:16:46.413Z,16.84
2022-09-14T03:19:18.912Z,16.75
2022-09-14T03:21:51.037Z,16.77
2022-09-14T03:24:23.389Z,16.73
2022-09-14T03:26:55.703Z,16.79
2022-09-14T03:29:27.819Z,16.63
2022-09-14T03:31:59.838Z,16.63
2022-09-14T03:34:32.046Z,16.64
2022-09-14T03:37:04.147Z,16.60
2022-09-14T03:39:36.088Z,16.58
2022-09-14T03:42:08.450Z,16.54
2022-09-14T03:44:40.394Z,16.53
2022-09-14T03:47:12.404Z,16.50
2022-09-14T03:49:44.433Z,16.49
2022-09-14T03:52:16.600Z,16.50
2022-09-14T03:54:49.221Z,16.53
2022-09-14T03:57:21.540Z,16.50
2022-09-14T03:59:53.462Z,16.57
2022-09-14T04:02:25.769Z,16.59
2022-09-14T04:04:57.798Z,16.51
2022-09-14T04:07:30.044Z,16.46
2022-09-14T04:10:02.272Z,16.53
2022-09-14T04:12:38.529Z,16.53
2022-09-14T04:15:11.922Z,16.34
2022-09-14T04:17:43.903Z,16.32
2022-09-14T04:20:16.189Z,16.30
2022-09-14T04:22:48.458Z,16.52
2022-09-14T04:25:23.122Z,16.58
2022-09-14T04:28:16.803Z,16.58
2022-09-14T04:30:55.202Z,16.47
2022-09-14T04:33:28.039Z,16.29
2022-09-14T04:36:03.019Z,16.18
2022-09-14T04:38:36.222Z,16.31
2022-09-14T04:41:11.544Z,16.31
2022-09-14T04:43:44.974Z,16.28
2022-09-14T04:46:20.875Z,16.27
2022-09-14T04:48:53.715Z,16.17
2022-09-14T04:51:27.969Z,16.09
2022-09-14T04:54:02.670Z,16.18
2022-09-14T04:56:34.570Z,16.26
2022-09-14T04:59:07.154Z,16.19
2022-09-14T05:01:41.126Z,16.15
2022-09-14T05:04:14.844Z,16.16
2022-09-14T05:06:47.255Z,16.17
2022-09-14T05:09:20.461Z,16.10
2022-09-14T05:11:52.995Z,16.14
2022-09-14T05:14:25.419Z,16.27
2022-09-14T05:17:01.297Z,16.31
2022-09-14T05:19:33.759Z,16.27
2022-09-14T05:22:05.815Z,16.21
2022-09-14T05:24:38.381Z,16.24
2022-09-14T05:27:10.847Z,16.22
2022-09-14T05:29:42.934Z,16.14
2022-09-14T05:32:15.397Z,16.20
2022-09-14T05:34:47.712Z,16.26
2022-09-14T05:37:19.677Z,16.30
2022-09-14T05:39:51.786Z,16.30
2022-09-14T05:42:23.723Z,16.34
2022-09-14T05:44:56.336Z,16.35
2022-09-14T05:47:29.990Z,16.36
2022-09-14T05:50:02.008Z,16.48
2022-09-14T05:52:33.991Z,16.42
2022-09-14T05:55:07.305Z,16.52
2022-09-14T05:57:39.781Z,16.47
2022-09-14T06:00:13.891Z,16.47
2022-09-14T06:02:50.057Z,16.58
2022-09-14T06:05:21.652Z,16.69
2022-09-14T06:07:56.791Z,16.64
2022-09-14T06:10:28.813Z,16.61
2022-09-14T06:13:01.946Z,16.67
2022-09-14T06:15:36.020Z,16.70
2022-09-14T06:18:07.983Z,16.54
2022-09-14T06:20:40.123Z,16.63
2022-09-14T06:23:12.488Z,16.74
2022-09-14T06:25:44.677Z,16.74
2022-09-14T06:28:16.813Z,16.69
2022-09-14T06:30:49.572Z,16.73
2022-09-14T06:33:22.073Z,16.77
2022-09-14T06:36:01.288Z,16.86
2022-09-14T06:38:34.103Z,16.89
2022-09-14T06:41:08.240Z,16.90
2022-09-14T06:43:42.185Z,16.82
2022-09-14T06:46:19.601Z,16.86
2022-09-14T06:48:53.248Z,16.90
2022-09-14T06:51:28.236Z,16.92
2022-09-14T06:54:01.133Z,16.93
2022-09-14T06:56:34.997Z,16.94
2022-09-14T06:59:09.099Z,16.97
2022-09-14T07:01:42.310Z,16.96
2022-09-14T07:04:15.138Z,17.03
2022-09-14T07:06:49.580Z,17.04
2022-09-14T07:09:22.235Z,17.07
2022-09-14T07:11:54.993Z,16.94
2022-09-14T07:14:31.595Z,17.03
2022-09-14T07:17:05.144Z,17.07
2022-09-14T07:19:37.798Z,17.15
2022-09-14T07:22:10.048Z,17.21
2022-09-14T07:24:42.544Z,16.92
2022-09-14T07:27:15.174Z,17.27
2022-09-14T07:29:47.465Z,17.37
2022-09-14T07:32:19.911Z,17.38
2022-09-14T07:34:52.359Z,17.39
2022-09-14T07:37:24.830Z,17.40
2022-09-14T07:39:57.350Z,17.41
2022-09-14T07:42:29.537Z,17.41
2022-09-14T07:45:01.871Z,17.49
2022-09-14T07:47:34.517Z,17.51
2022-09-14T07:50:07.550Z,17.53
2022-09-14T07:52:40.309Z,17.60
2022-09-14T07:55:13.502Z,17.67
2022-09-14T07:57:56.134Z,17.79
2022-09-14T08:00:29.380Z,17.82
2022-09-14T08:03:02.030Z,17.87
2022-09-14T08:05:34.360Z,17.80
2022-09-14T08:08:06.717Z,17.90
2022-09-14T08:10:38.769Z,17.89
2022-09-14T08:13:10.718Z,17.94
2022-09-14T08:15:42.599Z,18.06
2022-09-14T08:18:15.031Z,18.06
2022-09-14T08:20:46.985Z,18.09
2022-09-14T08:23:18.934Z,18.14
2022-09-14T08:25:50.809Z,18.00
2022-09-14T08:28:22.919Z,18.13
2022-09-14T08:30:55.218Z,18.22
2022-09-14T08:33:27.465Z,18.27
2022-09-14T08:35:59.559Z,18.30
2022-09-14T08:38:31.818Z,18.28
2022-09-14T08:41:11.776Z,18.27
2022-09-14T08:43:44.053Z,18.30
2022-09-14T08:46:25.647Z,18.28
2022-09-14T08:48:57.852Z,18.43
2022-09-14T08:51:30.967Z,18.44
2022-09-14T08:54:03.091Z,18.48
2022-09-14T08:56:37.460Z,18.51
2022-09-14T08:59:37.377Z,18.54
2022-09-14T09:02:26.757Z,18.62
2022-09-14T09:05:04.884Z,18.66
2022-09-14T09:07:48.902Z,18.64
2022-09-14T09:10:21.948Z,18.69
2022-09-14T09:12:58.401Z,18.84
2022-09-14T09:15:33.662Z,18.86
2022-09-14T09:18:10.593Z,18.81
2022-09-14T09:20:47.438Z,18.82
2022-09-14T09:23:22.454Z,18.88
2022-09-14T09:26:00.226Z,18.80
2022-09-14T09:28:33.675Z,18.73
2022-09-14T09:31:14.505Z,19.00
2022-09-14T09:33:59.379Z,19.11
2022-09-14T09:36:36.739Z,19.25
2022-09-14T09:39:09.244Z,19.23
2022-09-14T09:41:47.439Z,19.31
2022-09-14T09:44:19.733Z,19.23
2022-09-14T09:46:55.520Z,19.34
2022-09-14T09:49:31.312Z,19.50
2022-09-14T09:52:12.303Z,19.64
2022-09-14T09:54:50.555Z,19.57
2022-09-14T09:57:28.757Z,19.66
2022-09-14T10:00:22.421Z,19.68
2022-09-14T10:02:56.123Z,19.77
2022-09-14T10:05:31.669Z,19.79
2022-09-14T10:08:11.200Z,19.94
2022-09-14T10:10:45.006Z,19.98
2022-09-14T10:13:27.214Z,19.95
2022-09-14T10:16:13.365Z,19.78
2022-09-14T10:18:50.792Z,19.77
2022-09-14T10:21:25.761Z,19.83
2022-09-14T10:24:19.394Z,19.88
2022-09-14T10:26:51.312Z,19.95
2022-09-14T10:29:37.815Z,19.96
2022-09-14T10:32:20.090Z,19.91
2022-09-14T10:34:52.822Z,19.96
2022-09-14T10:37:33.628Z,20.11
2022-09-14T10:40:18.751Z,20.20
2022-09-14T10:43:05.721Z,20.21
2022-09-14T10:45:42.743Z,20.25
2022-09-14T10:48:31.959Z,20.38
2022-09-14T10:51:20.654Z,20.47
2022-09-14T10:53:58.567Z,20.72
2022-09-14T10:56:42.655Z,20.87
2022-09-14T10:59:27.844Z,21.00
2022-09-14T11:02:19.912Z,21.08
2022-09-14T11:05:12.256Z,21.13
2022-09-14T11:07:58.344Z,21.13
2022-09-14T11:10:37.181Z,21.13
2022-09-14T11:13:31.986Z,21.13
2022-09-14T11:16:13.874Z,21.12
2022-09-14T11:18:53.639Z,21.25
2022-09-14T11:21:38.578Z,21.26
2022-09-14T11:24:20.585Z,21.18
2022-09-14T11:27:01.556Z,21.22
2022-09-14T11:29:38.481Z,21.19
2022-09-14T11:32:21.464Z,21.15
2022-09-14T11:34:58.503Z,21.05
2022-09-14T11:37:40.772Z,20.98
2022-09-14T11:40:22.166Z,20.92
2022-09-14T11:43:02.158Z,20.93
2022-09-14T11:45:41.235Z,20.84
2022-09-14T11:48:41.781Z,20.76
2022-09-14T11:51:16.140Z,20.82
2022-09-14T11:53:48.558Z,20.91
2022-09-14T11:56:26.603Z,20.90
2022-09-14T11:59:01.027Z,20.91
2022-09-14T12:01:37.649Z,20.88
2022-09-14T12:04:18.178Z,20.81
2022-09-14T12:06:57.964Z,20.81
2022-09-14T12:09:45.658Z,20.81
2022-09-14T12:12:36.561Z,20.84
2022-09-14T12:15:29.274Z,20.77
2022-09-14T12:18:23.088Z,20.71
2022-09-14T12:21:07.367Z,20.77
2022-09-14T12:23:52.453Z,20.65
2022-09-14T12:26:33.798Z,20.75
2022-09-14T12:29:25.891Z,20.75
2022-09-14T12:32:25.102Z,20.79
2022-09-14T12:35:33.628Z,20.82
2022-09-14T12:38:35.512Z,20.79
2022-09-14T12:41:47.138Z,20.78
2022-09-14T12:44:40.607Z,20.77
2022-09-14T12:47:51.033Z,20.80
2022-09-14T12:50:24.836Z,20.68
2022-09-14T12:53:16.707Z,20.71
2022-09-14T12:55:59.399Z,20.75
2022-09-14T12:58:59.295Z,20.78
2022-09-14T13:01:41.566Z,20.79
2022-09-14T13:04:18.145Z,20.66
2022-09-14T13:06:52.386Z,20.66
2022-09-14T13:09:26.886Z,20.70
2022-09-14T13:12:01.116Z,20.64
2022-09-14T13:14:37.819Z,20.64
2022-09-14T13:17:16.413Z,20.49
2022-09-14T13:19:59.494Z,20.48
2022-09-14T13:22:32.833Z,20.40
2022-09-14T13:25:04.995Z,20.49
2022-09-14T13:27:39.592Z,20.55
2022-09-14T13:30:22.933Z,20.55
2022-09-14T13:32:58.122Z,20.44
2022-09-14T13:35:37.173Z,20.52
2022-09-14T13:38:15.741Z,20.53
2022-09-14T13:40:49.858Z,20.40
2022-09-14T13:43:24.085Z,20.51
2022-09-14T13:45:57.206Z,20.53
2022-09-14T13:48:30.166Z,20.56
2022-09-14T13:51:02.582Z,20.51
2022-09-14T13:53:43.566Z,20.47
2022-09-14T13:56:28.231Z,20.46
2022-09-14T13:59:23.456Z,20.43
2022-09-14T14:01:59.730Z,20.43
2022-09-14T14:04:37.550Z,20.40
2022-09-14T14:07:20.990Z,20.40
2022-09-14T14:09:55.869Z,20.43
2022-09-14T14:12:30.564Z,20.43
2022-09-14T14:15:04.354Z,20.41
2022-09-14T14:17:39.013Z,20.33
2022-09-14T14:20:33.211Z,20.26
2022-09-14T14:23:24.125Z,20.22
2022-09-14T14:26:07.818Z,20.27
2022-09-14T14:28:40.999Z,20.31
2022-09-14T14:31:19.923Z,20.33
2022-09-14T14:33:53.504Z,20.32
2022-09-14T14:36:25.642Z,20.32
2022-09-14T14:38:58.588Z,20.39
2022-09-14T14:41:30.725Z,20.36
2022-09-14T14:44:03.162Z,20.36
2022-09-14T14:46:35.379Z,20.35
2022-09-14T14:49:09.249Z,20.31
2022-09-14T14:51:41.689Z,20.17
2022-09-14T14:54:16.818Z,20.12
2022-09-14T14:56:47.917Z,20.11
2022-09-14T14:59:31.020Z,20.07
2022-09-14T15:02:03.174Z,20.02
2022-09-14T15:04:35.285Z,20.00
2022-09-14T15:07:07.489Z,19.95
2022-09-14T15:09:39.503Z,19.93
2022-09-14T15:12:12.684Z,19.94
2022-09-14T15:14:44.681Z,19.87
2022-09-14T15:17:17.823Z,19.93
2022-09-14T15:19:50.151Z,19.91
2022-09-14T15:22:22.688Z,19.96
2022-09-14T15:24:54.781Z,19.92
2022-09-14T15:27:26.997Z,19.94
2022-09-14T15:29:59.942Z,19.93
2022-09-14T15:32:32.721Z,19.87
2022-09-14T15:35:05.054Z,19.84
2022-09-14T15:37:37.448Z,19.83
2022-09-14T15:40:11.891Z,19.72
2022-09-14T15:42:43.096Z,19.70
2022-09-14T15:45:15.105Z,19.81
2022-09-14T15:47:47.392Z,19.78
2022-09-14T15:50:22.666Z,19.77
2022-09-14T15:52:53.274Z,19.84
2022-09-14T15:55:25.869Z,19.77
2022-09-14T15:57:57.838Z,19.76
2022-09-14T16:00:29.851Z,19.82
2022-09-14T16:03:02.200Z,19.74
2022-09-14T16:05:37.951Z,19.70
2022-09-14T16:08:09.991Z,19.64
2022-09-14T16:10:42.555Z,19.62
2022-09-14T16:13:14.595Z,19.60
2022-09-14T16:15:46.562Z,19.57
2022-09-14T16:18:18.726Z,19.66
2022-09-14T16:20:50.893Z,19.59
2022-09-14T16:23:23.227Z,19.55
2022-09-14T16:25:55.527Z,19.50
2022-09-14T16:28:28.266Z,19.47
2022-09-14T16:31:09.273Z,19.51
2022-09-14T16:33:43.492Z,19.47
2022-09-14T16:36:18.825Z,19.45
2022-09-14T16:38:51.022Z,19.44
2022-09-14T16:41:23.043Z,19.39
2022-09-14T16:43:58.271Z,19.36
2022-09-14T16:46:31.753Z,19.31
2022-09-14T16:49:05.795Z,19.28
2022-09-14T16:51:38.632Z,19.25
2022-09-14T16:54:11.997Z,19.24
2022-09-14T16:56:44.778Z,19.17
2022-09-14T16:59:17.908Z,19.15
2022-09-14T17:01:54.599Z,19.15
2022-09-14T17:04:27.552Z,19.15
2022-09-14T17:07:00.467Z,19.12
2022-09-14T17:09:34.391Z,19.10
2022-09-14T17:12:07.277Z,19.14
2022-09-14T17:14:39.325Z,19.13
2022-09-14T17:17:11.300Z,19.15
2022-09-14T17:19:43.883Z,19.11
2022-09-14T17:22:16.787Z,19.00
2022-09-14T17:24:48.978Z,18.95
2022-09-14T17:27:21.083Z,18.93
2022-09-14T17:29:53.188Z,18.87
2022-09-14T17:32:25.277Z,18.84
2022-09-14T17:34:57.325Z,18.88
2022-09-14T17:37:29.321Z,18.92
2022-09-14T17:40:01.810Z,18.91
2022-09-14T17:42:34.247Z,18.89
2022-09-14T17:45:07.274Z,18.86
2022-09-14T17:47:40.017Z,18.82
2022-09-14T17:50:12.939Z,18.81
2022-09-14T17:52:45.148Z,18.78
2022-09-14T17:55:17.452Z,18.79
2022-09-14T17:57:49.897Z,18.78
2022-09-14T18:00:22.448Z,18.77
2022-09-14T18:02:55.076Z,18.78
2022-09-14T18:05:27.715Z,18.74
2022-09-14T18:07:59.692Z,18.75
2022-09-14T18:10:32.419Z,18.75
2022-09-14T18:13:04.452Z,18.75
2022-09-14T18:15:40.348Z,18.72
2022-09-14T18:18:12.733Z,18.74
2022-09-14T18:20:44.908Z,18.72
2022-09-14T18:23:25.994Z,18.66
2022-09-14T18:25:58.409Z,18.60
2022-09-14T18:28:30.596Z,18.72
2022-09-14T18:31:07.231Z,18.71
2022-09-14T18:33:39.699Z,18.63
2022-09-14T18:36:12.364Z,18.73
2022-09-14T18:38:45.196Z,18.71
2022-09-14T18:41:18.683Z,18.67
2022-09-14T18:43:55.944Z,18.66
2022-09-14T18:46:28.819Z,18.66
2022-09-14T18:49:03.223Z,18.65
2022-09-14T18:51:35.540Z,18.62
2022-09-14T18:54:11.048Z,18.59
2022-09-14T18:56:43.565Z,18.58
2022-09-14T18:59:16.898Z,18.58
2022-09-14T19:01:49.281Z,18.56
2022-09-14T19:04:21.603Z,18.55
2022-09-14T19:06:54.655Z,18.54
2022-09-14T19:09:27.333Z,18.50
2022-09-14T19:11:59.490Z,18.48
2022-09-14T19:14:32.317Z,18.48
2022-09-14T19:17:04.464Z,18.49
2022-09-14T19:19:36.524Z,18.46
2022-09-14T19:22:08.805Z,18.46
2022-09-14T19:24:41.366Z,18.47
2022-09-14T19:27:13.586Z,18.44
2022-09-14T19:29:46.369Z,18.41
2022-09-14T19:32:18.848Z,18.40
2022-09-14T19:34:51.112Z,18.39
2022-09-14T19:37:24.255Z,18.32
2022-09-14T19:39:57.898Z,18.38
2022-09-14T19:42:30.398Z,18.36
2022-09-14T19:45:03.113Z,18.35
2022-09-14T19:47:35.520Z,18.32
2022-09-14T19:50:10.070Z,18.30
2022-09-14T19:52:42.886Z,18.29
2022-09-14T19:55:15.757Z,18.27
2022-09-14T19:57:49.052Z,18.23
2022-09-14T20:00:22.956Z,18.23
2022-09-14T20:02:55.323Z,18.22
2022-09-14T20:05:31.024Z,18.20
2022-09-14T20:08:03.653Z,18.19
2022-09-14T20:10:37.446Z,18.19
2022-09-14T20:13:09.634Z,18.17
2022-09-14T20:15:42.452Z,18.08
2022-09-14T20:18:15.041Z,18.13
2022-09-14T20:20:47.025Z,18.11
2022-09-14T20:23:20.165Z,18.10
2022-09-14T20:25:52.721Z,18.09
2022-09-14T20:28:28.899Z,17.99
2022-09-14T20:31:02.490Z,18.05
2022-09-14T20:33:34.845Z,18.01
2022-09-14T20:36:09.683Z,17.94
2022-09-14T20:38:48.507Z,18.00
2022-09-14T20:41:23.210Z,17.90
2022-09-14T20:43:56.202Z,17.99
2022-09-14T20:46:31.928Z,17.91
2022-09-14T20:49:05.566Z,17.99
2022-09-14T20:51:39.058Z,17.97
2022-09-14T20:54:14.131Z,17.88
2022-09-14T20:56:47.502Z,17.93
2022-09-14T20:59:22.337Z,17.93
2022-09-14T21:01:54.838Z,17.93
2022-09-14T21:04:28.339Z,17.92
2022-09-14T21:07:00.266Z,17.91
2022-09-14T21:09:33.143Z,17.89
2022-09-14T21:12:05.686Z,17.88
2022-09-14T21:14:38.211Z,17.87
2022-09-14T21:17:10.383Z,17.79
2022-09-14T21:19:42.439Z,17.86
2022-09-14T21:22:14.361Z,17.77
2022-09-14T21:24:46.495Z,17.86
2022-09-14T21:27:18.871Z,17.85
2022-09-14T21:29:51.921Z,17.83
2022-09-14T21:32:24.338Z,17.84
2022-09-14T21:34:56.363Z,17.85
2022-09-14T21:37:30.017Z,17.77
2022-09-14T21:40:02.394Z,17.85
2022-09-14T21:42:34.438Z,17.83
2022-09-14T21:45:09.673Z,17.83
2022-09-14T21:47:41.692Z,17.82
2022-09-14T21:50:14.121Z,17.80
2022-09-14T21:52:46.308Z,17.80
2022-09-14T21:55:19.253Z,17.78
2022-09-14T21:57:51.782Z,17.76
2022-09-14T22:00:28.736Z,17.76
2022-09-14T22:03:02.974Z,17.75
2022-09-14T22:05:35.313Z,17.74
2022-09-14T22:08:07.283Z,17.71
2022-09-14T22:10:39.869Z,17.70
2022-09-14T22:13:11.826Z,17.71
2022-09-14T22:15:44.472Z,17.72
2022-09-14T22:18:16.761Z,17.71
2022-09-14T22:20:55.992Z,17.69
2022-09-14T22:23:28.246Z,17.67
2022-09-14T22:26:03.822Z,17.66
2022-09-14T22:28:36.041Z,17.66
2022-09-14T22:31:09.109Z,17.66
2022-09-14T22:33:41.504Z,17.65
2022-09-14T22:36:14.968Z,17.63
2022-09-14T22:38:47.566Z,17.63
2022-09-14T22:41:22.705Z,17.64
2022-09-14T22:43:56.236Z,17.63
2022-09-14T22:46:28.660Z,17.63
2022-09-14T22:49:00.607Z,17.62
2022-09-14T22:51:32.936Z,17.61
2022-09-14T22:54:05.225Z,17.60
2022-09-14T22:56:39.191Z,17.59
2022-09-14T22:59:12.396Z,17.59
2022-09-14T23:01:44.684Z,17.58
2022-09-14T23:04:16.788Z,17.57
2022-09-14T23:06:49.864Z,17.56
2022-09-14T23:09:23.092Z,17.54
2022-09-14T23:11:55.172Z,17.53
2022-09-14T23:14:27.933Z,17.53
2022-09-14T23:16:59.906Z,17.52
2022-09-14T23:19:31.964Z,17.51
2022-09-14T23:22:05.097Z,17.50
2022-09-14T23:24:37.052Z,17.49
2022-09-14T23:27:09.194Z,17.48
2022-09-14T23:29:41.401Z,17.47
2022-09-14T23:32:13.385Z,17.49
2022-09-14T23:34:45.349Z,17.44
2022-09-14T23:37:17.920Z,17.48
2022-09-14T23:39:50.215Z,17.48
2022-09-14T23:42:22.276Z,17.48
2022-09-14T23:44:54.860Z,17.47
2022-09-14T23:47:27.117Z,17.47
2022-09-14T23:49:59.304Z,17.46
2022-09-14T23:52:31.245Z,17.43
2022-09-14T23:55:03.771Z,17.43
2022-09-14T23:57:36.746Z,17.42
